Airfield :
LOGIN :

Register | Disclaimer

   EN    FR    IT 

 










Legend :    VFR   Marginal VFR   IFR   Intensive IFR   Very Intensive IFR
Visi :
Ceiling :
>= 8 km
>= 3000ft
5 to 8 km
1000 to 3000 ft
1500m to 5 km
500 to 1000 ft
800 to 1500m
200 to 500 ft
< 800m
< 200 ft
Symbols :   Thunderstorms  Fog  Heavy snow  Heavy precipitations  Wind > 20 kt
SIGMETs :     Misc.  Thunderstorms  Icing  Turbulence  Mountain Waves  Volcanic Ashes







- Airport Elevation : 160 ft
- IATA code : LRT
- Download approach charts


LFRH - Lorient Lann Bihoue

CURRENT METAR :
  • 172130Z AUTO 09016KT 7000 OVC014 05/03 Q1018 BECMG 07010G20KT

EXPIRED METARs :
  • 172100Z AUTO 09014KT 7000 OVC013 05/03 Q1018 NOSIG
  • 172030Z AUTO 09014KT 7000 OVC012 05/03 Q1018 NOSIG
  • 172000Z AUTO 08012KT 7000 OVC012 05/03 Q1018 NOSIG
  • 171930Z AUTO 07011KT 7000 BKN013 04/03 Q1017 NOSIG
  • 171900Z AUTO 08012KT 9000 BKN010 05/03 Q1017 NOSIG

TAF TAF LFRH
Valid from the 17 at 18:00 until the 18 at 18:00 UTC


171700Z 1718/1818 07010G20KT 7000 OVC006
TEMPO 1719/1801 BKN012
BECMG 1801/1803 OVC008
TEMPO 1806/1809 2000 BR BKN004 OVC008
BECMG 1812/1814 CAVOK
No reported NOTAMs for that airfield.



MET'MAP, your aeronautical weather chart ! - Copyright ORBIFLY December 2007 - Disclaimer

ORBIFLY MET'MAP TEAM :

Programming & Development : Alexandra Zaïnal
Concept & Development : Baudouin d'Aumeries
Co-Development & Prog : Marc-Olivier Méhu
Technical & hardware support : Manuel Goepfert

Contact : metmap@orbifly.com




SOURCES & CREDITS :

   NOAA